<?xml version='1.0' encoding='UTF-8'?><gpx version="1.1" creator="JPX - https://github.com/jenetics/jpx" xmlns="http://www.topografix.com/GPX/1/1"><trk><trkseg><trkpt lat="39.35969088718932" lon="16.03078359222985"><ele>0.0</ele><time>2026-03-27T11:05:53Z</time></trkpt><trkpt lat="39.35975210869915" lon="16.03071834509837"><ele>0.0</ele><time>2026-03-27T11:05:55Z</time></trkpt><trkpt lat="39.35989310713443" lon="16.030620426514155"><ele>0.0</ele><time>2026-03-27T11:05:58Z</time></trkpt><trkpt lat="39.3599532045075" lon="16.030574252948266"><ele>0.0</ele><time>2026-03-27T11:05:59Z</time></trkpt><trkpt lat="39.3600115257727" lon="16.03053234747889"><ele>0.0</ele><time>2026-03-27T11:06:00Z</time></trkpt><trkpt lat="39.360076822209585" lon="16.030487747526134"><ele>0.0</ele><time>2026-03-27T11:06:01Z</time></trkpt><trkpt lat="39.360148594708946" lon="16.030452159306286"><ele>0.0</ele><time>2026-03-27T11:06:02Z</time></trkpt><trkpt lat="39.36022481628767" lon="16.030414296273307"><ele>0.0</ele><time>2026-03-27T11:06:03Z</time></trkpt><trkpt lat="39.360304885750374" lon="16.030375357008126"><ele>0.0</ele><time>2026-03-27T11:06:04Z</time></trkpt><trkpt lat="39.360385872086944" lon="16.03033733640679"><ele>0.0</ele><time>2026-03-27T11:06:05Z</time></trkpt><trkpt lat="39.3604648753483" lon="16.03029862390736"><ele>0.0</ele><time>2026-03-27T11:06:06Z</time></trkpt><trkpt lat="39.36054533047927" lon="16.030262570208084"><ele>0.5</ele><time>2026-03-27T11:06:07Z</time></trkpt><trkpt lat="39.36062411297178" lon="16.030223790146593"><ele>1.0</ele><time>2026-03-27T11:06:08Z</time></trkpt><trkpt lat="39.36069371359406" lon="16.03019190783506"><ele>1.5</ele><time>2026-03-27T11:06:09Z</time></trkpt><trkpt lat="39.36076153603225" lon="16.030155150087833"><ele>2.0</ele><time>2026-03-27T11:06:10Z</time></trkpt><trkpt lat="39.3608352255889" lon="16.030114756982215"><ele>2.5</ele><time>2026-03-27T11:06:11Z</time></trkpt><trkpt lat="39.360913274168894" lon="16.030078503823617"><ele>3.0</ele><time>2026-03-27T11:06:12Z</time></trkpt><trkpt lat="39.36099059279423" lon="16.030037145174262"><ele>3.0</ele><time>2026-03-27T11:06:13Z</time></trkpt><trkpt lat="39.3610650313424" lon="16.030005142172094"><ele>3.0</ele><time>2026-03-27T11:06:14Z</time></trkpt><trkpt lat="39.36113902524193" lon="16.02996788983064"><ele>3.0</ele><time>2026-03-27T11:06:15Z</time></trkpt><trkpt lat="39.36120767690493" lon="16.029935133275956"><ele>3.0</ele><time>2026-03-27T11:06:16Z</time></trkpt><trkpt lat="39.36127331588302" lon="16.02990398764452"><ele>3.0</ele><time>2026-03-27T11:06:17Z</time></trkpt><trkpt lat="39.361345420346936" lon="16.029871853370793"><ele>3.0</ele><time>2026-03-27T11:06:18Z</time></trkpt><trkpt lat="39.36141163000626" lon="16.02982076953968"><ele>2.6666666666666665</ele><time>2026-03-27T11:06:19Z</time></trkpt><trkpt lat="39.36148536818578" lon="16.02978512412346"><ele>2.3333333333333335</ele><time>2026-03-27T11:06:20Z</time></trkpt><trkpt lat="39.36155939733867" lon="16.029767417572"><ele>2.0</ele><time>2026-03-27T11:06:21Z</time></trkpt><trkpt lat="39.36163153123361" lon="16.029727585060673"><ele>1.6666666666666665</ele><time>2026-03-27T11:06:22Z</time></trkpt><trkpt lat="39.36170849618199" lon="16.029688009187623"><ele>1.3333333333333333</ele><time>2026-03-27T11:06:23Z</time></trkpt><trkpt lat="39.361787567097124" lon="16.029652333680083"><ele>1.0</ele><time>2026-03-27T11:06:24Z</time></trkpt><trkpt lat="39.36186579831295" lon="16.02961320341243"><ele>0.9999999999999999</ele><time>2026-03-27T11:06:25Z</time></trkpt><trkpt lat="39.36194567324826" lon="16.029573604497124"><ele>1.0</ele><time>2026-03-27T11:06:26Z</time></trkpt><trkpt lat="39.362026263875315" lon="16.029535092071807"><ele>1.0</ele><time>2026-03-27T11:06:27Z</time></trkpt><trkpt lat="39.362105324441906" lon="16.029497799854163"><ele>1.0</ele><time>2026-03-27T11:06:28Z</time></trkpt><trkpt lat="39.36218436777768" lon="16.029458294874413"><ele>0.9999999999999999</ele><time>2026-03-27T11:06:29Z</time></trkpt><trkpt lat="39.36226229197856" lon="16.029420048860818"><ele>1.0</ele><time>2026-03-27T11:06:30Z</time></trkpt><trkpt lat="39.36233857229185" lon="16.029383579035407"><ele>1.5</ele><time>2026-03-27T11:06:31Z</time></trkpt><trkpt lat="39.36241418054584" lon="16.029346818397002"><ele>2.0</ele><time>2026-03-27T11:06:32Z</time></trkpt><trkpt lat="39.362490229167854" lon="16.02930957812518"><ele>2.5</ele><time>2026-03-27T11:06:33Z</time></trkpt><trkpt lat="39.36256592751831" lon="16.029273238223187"><ele>3.0</ele><time>2026-03-27T11:06:34Z</time></trkpt><trkpt lat="39.3626403460569" lon="16.029236289146166"><ele>3.4999999999999996</ele><time>2026-03-27T11:06:35Z</time></trkpt><trkpt lat="39.36270981579094" lon="16.029202164354974"><ele>4.0</ele><time>2026-03-27T11:06:36Z</time></trkpt><trkpt lat="39.362772506012085" lon="16.02917352604673"><ele>4.0</ele><time>2026-03-27T11:06:37Z</time></trkpt><trkpt lat="39.36283539305403" lon="16.0291469409031"><ele>3.9999999999999996</ele><time>2026-03-27T11:06:38Z</time></trkpt><trkpt lat="39.362900660590554" lon="16.029133030547897"><ele>4.0</ele><time>2026-03-27T11:06:39Z</time></trkpt><trkpt lat="39.36296625106042" lon="16.029119246218823"><ele>4.0</ele><time>2026-03-27T11:06:40Z</time></trkpt><trkpt lat="39.363039565461754" lon="16.029101477490556"><ele>3.9999999999999996</ele><time>2026-03-27T11:06:41Z</time></trkpt><trkpt lat="39.36311606929555" lon="16.029083578215648"><ele>4.0</ele><time>2026-03-27T11:06:42Z</time></trkpt><trkpt lat="39.36319684057743" lon="16.029069103212038"><ele>4.0</ele><time>2026-03-27T11:06:43Z</time></trkpt><trkpt lat="39.3632800812656" lon="16.029054322092858"><ele>3.333333333333333</ele><time>2026-03-27T11:06:44Z</time></trkpt><trkpt lat="39.36336700700729" lon="16.029041313025754"><ele>2.6666666666666665</ele><time>2026-03-27T11:06:45Z</time></trkpt><trkpt lat="39.36345535106244" lon="16.029030002252654"><ele>2.0</ele><time>2026-03-27T11:06:45.999Z</time></trkpt><trkpt lat="39.363533344927056" lon="16.029014591523158"><ele>1.3333333333333333</ele><time>2026-03-27T11:06:46.999Z</time></trkpt><trkpt lat="39.36362937915715" lon="16.029001428511656"><ele>0.6666666666666666</ele><time>2026-03-27T11:06:47.999Z</time></trkpt><trkpt lat="39.36371076119164" lon="16.028985879006154"><ele>0.0</ele><time>2026-03-27T11:06:48.999Z</time></trkpt><trkpt lat="39.36379750539062" lon="16.02897013626804"><ele>0.16666666666666666</ele><time>2026-03-27T11:06:49.999Z</time></trkpt><trkpt lat="39.36387830712383" lon="16.02895771935112"><ele>0.3333333333333333</ele><time>2026-03-27T11:06:50.999Z</time></trkpt><trkpt lat="39.36395666443804" lon="16.028960087066306"><ele>0.5</ele><time>2026-03-27T11:06:51.999Z</time></trkpt><trkpt lat="39.364031931261785" lon="16.028926857336483"><ele>0.6666666666666666</ele><time>2026-03-27T11:06:52.999Z</time></trkpt><trkpt lat="39.36411339149633" lon="16.028912895869468"><ele>0.8333333333333333</ele><time>2026-03-27T11:06:53.999Z</time></trkpt><trkpt lat="39.364199634767914" lon="16.028901942562747"><ele>1.0</ele><time>2026-03-27T11:06:54.999Z</time></trkpt><trkpt lat="39.36428618068175" lon="16.028884917563357"><ele>0.9999999999999999</ele><time>2026-03-27T11:06:55.999Z</time></trkpt><trkpt lat="39.36437183597839" lon="16.028865694291426"><ele>1.0</ele><time>2026-03-27T11:06:56.999Z</time></trkpt><trkpt lat="39.36445150921077" lon="16.028847038309802"><ele>1.0</ele><time>2026-03-27T11:06:57.999Z</time></trkpt><trkpt lat="39.36452791049854" lon="16.028826971116708"><ele>1.0</ele><time>2026-03-27T11:06:58.999Z</time></trkpt><trkpt lat="39.364606791522476" lon="16.02880542019396"><ele>0.9999999999999999</ele><time>2026-03-27T11:06:59.999Z</time></trkpt><trkpt lat="39.36468720862913" lon="16.02878138693356"><ele>1.0</ele><time>2026-03-27T11:07:00.999Z</time></trkpt><trkpt lat="39.36476988803532" lon="16.028754797878015"><ele>1.3333333333333333</ele><time>2026-03-27T11:07:01.999Z</time></trkpt><trkpt lat="39.36485172899408" lon="16.02872548894927"><ele>1.6666666666666665</ele><time>2026-03-27T11:07:02.999Z</time></trkpt><trkpt lat="39.364934372763194" lon="16.028694529937674"><ele>2.0</ele><time>2026-03-27T11:07:03.999Z</time></trkpt><trkpt lat="39.365015979751455" lon="16.028665078403797"><ele>2.3333333333333335</ele><time>2026-03-27T11:07:04.999Z</time></trkpt><trkpt lat="39.3650978429509" lon="16.028633432028858"><ele>2.6666666666666665</ele><time>2026-03-27T11:07:05.999Z</time></trkpt><trkpt lat="39.36517641756532" lon="16.028603479253917"><ele>3.0</ele><time>2026-03-27T11:07:06.999Z</time></trkpt><trkpt lat="39.365251055824245" lon="16.02857742018676"><ele>3.0</ele><time>2026-03-27T11:07:07.999Z</time></trkpt><trkpt lat="39.365327907071084" lon="16.028550070472512"><ele>3.0</ele><time>2026-03-27T11:07:08.999Z</time></trkpt><trkpt lat="39.36540289348726" lon="16.028523639212153"><ele>3.0</ele><time>2026-03-27T11:07:09.999Z</time></trkpt><trkpt lat="39.36547935161809" lon="16.028491769517238"><ele>3.0</ele><time>2026-03-27T11:07:10.999Z</time></trkpt><trkpt lat="39.36555854735945" lon="16.028459800325866"><ele>3.0</ele><time>2026-03-27T11:07:11.999Z</time></trkpt><trkpt lat="39.36564300528322" lon="16.028425890732983"><ele>3.0</ele><time>2026-03-27T11:07:12.999Z</time></trkpt><trkpt lat="39.36573267527829" lon="16.028391364787968"><ele>3.3333333333333335</ele><time>2026-03-27T11:07:13.999Z</time></trkpt><trkpt lat="39.365824009406076" lon="16.02835894218393"><ele>3.666666666666667</ele><time>2026-03-27T11:07:14.999Z</time></trkpt><trkpt lat="39.3659128261044" lon="16.02832692656463"><ele>4.0</ele><time>2026-03-27T11:07:15.999Z</time></trkpt><trkpt lat="39.365995057780246" lon="16.028296674694126"><ele>4.333333333333334</ele><time>2026-03-27T11:07:16.999Z</time></trkpt><trkpt lat="39.36607452300131" lon="16.028260236612294"><ele>4.666666666666667</ele><time>2026-03-27T11:07:17.999Z</time></trkpt><trkpt lat="39.36615441310427" lon="16.028222989473477"><ele>5.0</ele><time>2026-03-27T11:07:18.999Z</time></trkpt><trkpt lat="39.36623481615852" lon="16.02819155011648"><ele>4.2</ele><time>2026-03-27T11:07:19.999Z</time></trkpt><trkpt lat="39.366323957271696" lon="16.028166340895464"><ele>3.4</ele><time>2026-03-27T11:07:20.999Z</time></trkpt><trkpt lat="39.36641831741468" lon="16.02814011339956"><ele>2.6</ele><time>2026-03-27T11:07:21.999Z</time></trkpt><trkpt lat="39.36651635761438" lon="16.028102556942436"><ele>1.8</ele><time>2026-03-27T11:07:22.999Z</time></trkpt><trkpt lat="39.366612694520974" lon="16.028065933266582"><ele>1.0</ele><time>2026-03-27T11:07:23.999Z</time></trkpt><trkpt lat="39.36671040258465" lon="16.028030153227387"><ele>1.0</ele><time>2026-03-27T11:07:24.999Z</time></trkpt><trkpt lat="39.366803432787904" lon="16.027994150378177"><ele>1.0</ele><time>2026-03-27T11:07:25.999Z</time></trkpt><trkpt lat="39.3668970749933" lon="16.027959259590304"><ele>1.0</ele><time>2026-03-27T11:07:26.999Z</time></trkpt><trkpt lat="39.366988410919355" lon="16.027923957937308"><ele>1.0</ele><time>2026-03-27T11:07:27.999Z</time></trkpt><trkpt lat="39.36708242036447" lon="16.02788936897891"><ele>1.0</ele><time>2026-03-27T11:07:28.999Z</time></trkpt><trkpt lat="39.36717699555555" lon="16.02785677107353"><ele>1.3333333333333333</ele><time>2026-03-27T11:07:29.999Z</time></trkpt><trkpt lat="39.36726833300531" lon="16.02782624154609"><ele>1.6666666666666665</ele><time>2026-03-27T11:07:30.999Z</time></trkpt><trkpt lat="39.36735772015609" lon="16.02779719092295"><ele>2.0</ele><time>2026-03-27T11:07:31.999Z</time></trkpt><trkpt lat="39.367440462574955" lon="16.027770070602234"><ele>2.3333333333333335</ele><time>2026-03-27T11:07:33Z</time></trkpt><trkpt lat="39.367517341327854" lon="16.027745101109005"><ele>2.6666666666666665</ele><time>2026-03-27T11:07:34Z</time></trkpt><trkpt lat="39.36758765386881" lon="16.02772470274792"><ele>3.0</ele><time>2026-03-27T11:07:35Z</time></trkpt><trkpt lat="39.36766154952803" lon="16.027702208486023"><ele>3.0</ele><time>2026-03-27T11:07:36Z</time></trkpt><trkpt lat="39.36773415051325" lon="16.0276817085539"><ele>3.0</ele><time>2026-03-27T11:07:37Z</time></trkpt><trkpt lat="39.36781007524165" lon="16.027658032285927"><ele>3.0</ele><time>2026-03-27T11:07:38Z</time></trkpt><trkpt lat="39.36788863679413" lon="16.027634490828564"><ele>3.0</ele><time>2026-03-27T11:07:39Z</time></trkpt><trkpt lat="39.367972542122885" lon="16.02761515975215"><ele>3.0</ele><time>2026-03-27T11:07:40Z</time></trkpt><trkpt lat="39.3680609822681" lon="16.027594379973596"><ele>3.0</ele><time>2026-03-27T11:07:41Z</time></trkpt><trkpt lat="39.36814922701964" lon="16.027570850310433"><ele>2.5</ele><time>2026-03-27T11:07:42Z</time></trkpt><trkpt lat="39.36823077132982" lon="16.027548564116092"><ele>2.0</ele><time>2026-03-27T11:07:43Z</time></trkpt><trkpt lat="39.36830556514473" lon="16.027524622431446"><ele>1.5</ele><time>2026-03-27T11:07:44Z</time></trkpt><trkpt lat="39.36837721700583" lon="16.02750496280804"><ele>1.0</ele><time>2026-03-27T11:07:45Z</time></trkpt><trkpt lat="39.36844839191225" lon="16.02748646916881"><ele>0.5</ele><time>2026-03-27T11:07:46Z</time></trkpt><trkpt lat="39.368521830600514" lon="16.027471838890463"><ele>0.0</ele><time>2026-03-27T11:07:47Z</time></trkpt><trkpt lat="39.36859653541221" lon="16.027459644438114"><ele>0.0</ele><time>2026-03-27T11:07:48Z</time></trkpt><trkpt lat="39.36867260414764" lon="16.027438811324238"><ele>0.0</ele><time>2026-03-27T11:07:49Z</time></trkpt><trkpt lat="39.36874769249372" lon="16.027419975422188"><ele>0.0</ele><time>2026-03-27T11:07:50Z</time></trkpt><trkpt lat="39.36882294059667" lon="16.027396154505517"><ele>0.0</ele><time>2026-03-27T11:07:51Z</time></trkpt><trkpt lat="39.368899524208764" lon="16.02737375616899"><ele>0.0</ele><time>2026-03-27T11:07:52Z</time></trkpt><trkpt lat="39.36897291867587" lon="16.02735188921773"><ele>0.0</ele><time>2026-03-27T11:07:53Z</time></trkpt><trkpt lat="39.369046930793274" lon="16.027330755607036"><ele>0.0</ele><time>2026-03-27T11:07:54Z</time></trkpt><trkpt lat="39.369120869566515" lon="16.027308378816937"><ele>0.0</ele><time>2026-03-27T11:07:55Z</time></trkpt><trkpt lat="39.36919269929795" lon="16.02728841864146"><ele>0.0</ele><time>2026-03-27T11:07:56Z</time></trkpt><trkpt lat="39.369268121091714" lon="16.027260064418225"><ele>0.0</ele><time>2026-03-27T11:07:57Z</time></trkpt><trkpt lat="39.36934446761176" lon="16.02723966278237"><ele>0.0</ele><time>2026-03-27T11:07:58Z</time></trkpt><trkpt lat="39.36942551368271" lon="16.027208251233304"><ele>0.0</ele><time>2026-03-27T11:07:59Z</time></trkpt><trkpt lat="39.3695113341118" lon="16.027177062786997"><ele>0.0</ele><time>2026-03-27T11:08:00Z</time></trkpt><trkpt lat="39.36959923348198" lon="16.027141233587066"><ele>0.0</ele><time>2026-03-27T11:08:01Z</time></trkpt><trkpt lat="39.36968310601311" lon="16.027115800637254"><ele>0.0</ele><time>2026-03-27T11:08:02Z</time></trkpt><trkpt lat="39.36976155995077" lon="16.027087686535324"><ele>0.0</ele><time>2026-03-27T11:08:03Z</time></trkpt><trkpt lat="39.369826478240725" lon="16.027056013883684"><ele>0.0</ele><time>2026-03-27T11:08:04Z</time></trkpt><trkpt lat="39.369887919760075" lon="16.027028679494997"><ele>0.0</ele><time>2026-03-27T11:08:05Z</time></trkpt><trkpt lat="39.369988968967036" lon="16.02700401509486"><ele>0.6</ele><time>2026-03-27T11:08:07Z</time></trkpt><trkpt lat="39.3700385665966" lon="16.027056025539594"><ele>1.2</ele><time>2026-03-27T11:08:10Z</time></trkpt><trkpt lat="39.370064648075314" lon="16.02715792515301"><ele>1.7999999999999998</ele><time>2026-03-27T11:08:14Z</time></trkpt><trkpt lat="39.370096665996485" lon="16.027268255516283"><ele>2.4</ele><time>2026-03-27T11:08:17Z</time></trkpt><trkpt lat="39.37009982819887" lon="16.02740643328513"><ele>3.0</ele><time>2026-03-27T11:08:19Z</time></trkpt><trkpt lat="39.37013171894938" lon="16.02754489225879"><ele>4.6</ele><time>2026-03-27T11:08:21Z</time></trkpt><trkpt lat="39.37015702919188" lon="16.02768595039577"><ele>6.2</ele><time>2026-03-27T11:08:23Z</time></trkpt><trkpt lat="39.370180340612826" lon="16.027814449838548"><ele>7.800000000000001</ele><time>2026-03-27T11:08:25Z</time></trkpt><trkpt lat="39.370198070991606" lon="16.02792252256432"><ele>9.4</ele><time>2026-03-27T11:08:27Z</time></trkpt><trkpt lat="39.370205016755136" lon="16.02802659685776"><ele>11.0</ele><time>2026-03-27T11:08:31Z</time></trkpt><trkpt lat="39.370223697989466" lon="16.02812491381671"><ele>11.0</ele><time>2026-03-27T11:08:35Z</time></trkpt><trkpt lat="39.370081588893896" lon="16.028172896424934"><ele>11.0</ele><time>2026-03-27T11:08:38Z</time></trkpt><trkpt lat="39.369969967979216" lon="16.028196168541708"><ele>11.0</ele><time>2026-03-27T11:08:40Z</time></trkpt><trkpt lat="39.369899201927915" lon="16.02821692410444"><ele>11.0</ele><time>2026-03-27T11:08:41Z</time></trkpt><trkpt lat="39.369818648847684" lon="16.028228322315293"><ele>11.0</ele><time>2026-03-27T11:08:42Z</time></trkpt><trkpt lat="39.36973542745987" lon="16.028247262698763"><ele>10.833333333333332</ele><time>2026-03-27T11:08:43Z</time></trkpt><trkpt lat="39.36964953530671" lon="16.02826706785097"><ele>10.666666666666666</ele><time>2026-03-27T11:08:44Z</time></trkpt><trkpt lat="39.36956423145765" lon="16.02828960464802"><ele>10.5</ele><time>2026-03-27T11:08:45Z</time></trkpt><trkpt lat="39.36948216268862" lon="16.02831279336795"><ele>10.333333333333334</ele><time>2026-03-27T11:08:45.999Z</time></trkpt><trkpt lat="39.36940637816621" lon="16.02833324618585"><ele>10.166666666666668</ele><time>2026-03-27T11:08:46.999Z</time></trkpt><trkpt lat="39.369335256996756" lon="16.028351732337033"><ele>10.0</ele><time>2026-03-27T11:08:47.999Z</time></trkpt><trkpt lat="39.36927071903894" lon="16.02836987734309"><ele>10.0</ele><time>2026-03-27T11:08:48.999Z</time></trkpt><trkpt lat="39.36916550692766" lon="16.028398468214668"><ele>10.0</ele><time>2026-03-27T11:08:50.999Z</time></trkpt><trkpt lat="39.36908581710666" lon="16.02842293406839"><ele>10.0</ele><time>2026-03-27T11:08:52.999Z</time></trkpt><trkpt lat="39.36900889935376" lon="16.028447769876674"><ele>10.0</ele><time>2026-03-27T11:08:54.999Z</time></trkpt><trkpt lat="39.36893158191338" lon="16.028470645047832"><ele>10.0</ele><time>2026-03-27T11:08:56.999Z</time></trkpt><trkpt lat="39.36886563728854" lon="16.02848745174367"><ele>10.0</ele><time>2026-03-27T11:08:59.999Z</time></trkpt><trkpt lat="39.36876726495549" lon="16.02851853774382"><ele>9.666666666666668</ele><time>2026-03-27T11:09:02.999Z</time></trkpt><trkpt lat="39.36868822941954" lon="16.02854831153952"><ele>9.333333333333334</ele><time>2026-03-27T11:09:13.999Z</time></trkpt><trkpt lat="39.36859351470927" lon="16.028572293026034"><ele>9.0</ele><time>2026-03-27T11:09:17.999Z</time></trkpt><trkpt lat="39.36852861602818" lon="16.02858916987366"><ele>8.666666666666666</ele><time>2026-03-27T11:09:19.999Z</time></trkpt><trkpt lat="39.36844204349974" lon="16.028607753772718"><ele>8.333333333333332</ele><time>2026-03-27T11:09:22.999Z</time></trkpt><trkpt lat="39.368360969439294" lon="16.028624619468548"><ele>8.0</ele><time>2026-03-27T11:09:25.999Z</time></trkpt><trkpt lat="39.36826648800867" lon="16.028647792490194"><ele>8.0</ele><time>2026-03-27T11:09:28.999Z</time></trkpt><trkpt lat="39.36819478208656" lon="16.028666914513156"><ele>8.0</ele><time>2026-03-27T11:09:30.999Z</time></trkpt><trkpt lat="39.368120027115474" lon="16.02868861887875"><ele>8.0</ele><time>2026-03-27T11:09:33.999Z</time></trkpt><trkpt lat="39.368056101893025" lon="16.028707373130572"><ele>8.0</ele><time>2026-03-27T11:09:36.999Z</time></trkpt><trkpt lat="39.36783291202194" lon="16.028776133986703"><ele>8.0</ele><time>2026-03-27T11:09:45Z</time></trkpt><trkpt lat="39.36775176538618" lon="16.028806316801383"><ele>8.0</ele><time>2026-03-27T11:09:48Z</time></trkpt><trkpt lat="39.36767683896135" lon="16.028831228558683"><ele>8.0</ele><time>2026-03-27T11:09:50Z</time></trkpt><trkpt lat="39.36758727902468" lon="16.028870694057243"><ele>8.0</ele><time>2026-03-27T11:09:52Z</time></trkpt><trkpt lat="39.36749234221527" lon="16.028910141840527"><ele>8.0</ele><time>2026-03-27T11:09:54Z</time></trkpt><trkpt lat="39.36739116566251" lon="16.028948613043852"><ele>8.0</ele><time>2026-03-27T11:09:56Z</time></trkpt><trkpt lat="39.3672975784471" lon="16.02898277972409"><ele>7.999999999999999</ele><time>2026-03-27T11:09:58Z</time></trkpt><trkpt lat="39.36722361417749" lon="16.02901572168728"><ele>8.0</ele><time>2026-03-27T11:10:00Z</time></trkpt><trkpt lat="39.36715247164927" lon="16.029044444837176"><ele>8.0</ele><time>2026-03-27T11:10:02Z</time></trkpt><trkpt lat="39.367089058790356" lon="16.02906846611963"><ele>8.0</ele><time>2026-03-27T11:10:04Z</time></trkpt><trkpt lat="39.36701820655351" lon="16.029100229607785"><ele>7.999999999999999</ele><time>2026-03-27T11:10:08Z</time></trkpt><trkpt lat="39.36693648650079" lon="16.029141439505352"><ele>8.0</ele><time>2026-03-27T11:10:11Z</time></trkpt><trkpt lat="39.366862779663144" lon="16.029177306977825"><ele>8.571428571428571</ele><time>2026-03-27T11:10:14Z</time></trkpt><trkpt lat="39.36678666276402" lon="16.029206025304443"><ele>9.142857142857142</ele><time>2026-03-27T11:10:31Z</time></trkpt><trkpt lat="39.36671436138112" lon="16.02922797038885"><ele>9.714285714285714</ele><time>2026-03-27T11:10:34Z</time></trkpt><trkpt lat="39.36664440155446" lon="16.0292487945349"><ele>10.285714285714285</ele><time>2026-03-27T11:10:37Z</time></trkpt><trkpt lat="39.36658316368869" lon="16.029269489894507"><ele>10.857142857142858</ele><time>2026-03-27T11:10:40Z</time></trkpt><trkpt lat="39.366522818955765" lon="16.02929468486841"><ele>11.428571428571427</ele><time>2026-03-27T11:10:44Z</time></trkpt><trkpt lat="39.366442176687045" lon="16.029307542922492"><ele>12.0</ele><time>2026-03-27T11:10:47Z</time></trkpt><trkpt lat="39.36635151570627" lon="16.029325802733908"><ele>12.0</ele><time>2026-03-27T11:10:50Z</time></trkpt><trkpt lat="39.36626853992293" lon="16.029353268174052"><ele>12.0</ele><time>2026-03-27T11:10:53Z</time></trkpt><trkpt lat="39.366181932427686" lon="16.02937219590837"><ele>12.0</ele><time>2026-03-27T11:10:56Z</time></trkpt><trkpt lat="39.36611686841748" lon="16.029393352510393"><ele>12.0</ele><time>2026-03-27T11:10:58Z</time></trkpt><trkpt lat="39.366052181671314" lon="16.029416125597642"><ele>12.0</ele><time>2026-03-27T11:11:00Z</time></trkpt><trkpt lat="39.36597493040645" lon="16.029426633281375"><ele>12.0</ele><time>2026-03-27T11:11:02Z</time></trkpt><trkpt lat="39.36590363256474" lon="16.029431595979997"><ele>12.0</ele><time>2026-03-27T11:11:04Z</time></trkpt><trkpt lat="39.36583864834739" lon="16.029444058440543"><ele>12.0</ele><time>2026-03-27T11:11:06Z</time></trkpt><trkpt lat="39.365754314981594" lon="16.029477816775238"><ele>12.0</ele><time>2026-03-27T11:11:08Z</time></trkpt><trkpt lat="39.365652086849074" lon="16.029501916196526"><ele>12.0</ele><time>2026-03-27T11:11:10Z</time></trkpt><trkpt lat="39.3655626221314" lon="16.029533977973195"><ele>12.0</ele><time>2026-03-27T11:11:12Z</time></trkpt><trkpt lat="39.36547167407846" lon="16.02956418117219"><ele>12.0</ele><time>2026-03-27T11:11:14Z</time></trkpt><trkpt lat="39.365395135781" lon="16.02959035465253"><ele>11.5</ele><time>2026-03-27T11:11:16Z</time></trkpt><trkpt lat="39.36530706461702" lon="16.029618360109634"><ele>11.0</ele><time>2026-03-27T11:11:18Z</time></trkpt><trkpt lat="39.36522075721199" lon="16.029651218070004"><ele>10.5</ele><time>2026-03-27T11:11:20Z</time></trkpt><trkpt lat="39.365130508438824" lon="16.029682342233468"><ele>10.0</ele><time>2026-03-27T11:11:22Z</time></trkpt><trkpt lat="39.36505214299125" lon="16.02971118665049"><ele>9.5</ele><time>2026-03-27T11:11:24Z</time></trkpt><trkpt lat="39.36497385543939" lon="16.02974131079035"><ele>9.0</ele><time>2026-03-27T11:11:26Z</time></trkpt><trkpt lat="39.36489359336882" lon="16.02974736162042"><ele>9.0</ele><time>2026-03-27T11:11:28Z</time></trkpt><trkpt lat="39.36481958807743" lon="16.029773340092603"><ele>9.0</ele><time>2026-03-27T11:11:29.999Z</time></trkpt><trkpt lat="39.364739382175614" lon="16.02980149367224"><ele>9.0</ele><time>2026-03-27T11:11:31.999Z</time></trkpt><trkpt lat="39.36464008517495" lon="16.029849338479853"><ele>9.0</ele><time>2026-03-27T11:11:33.999Z</time></trkpt><trkpt lat="39.3645281653907" lon="16.029894836646747"><ele>9.0</ele><time>2026-03-27T11:11:35.999Z</time></trkpt><trkpt lat="39.36442064852922" lon="16.029924829297737"><ele>8.8</ele><time>2026-03-27T11:11:37.999Z</time></trkpt><trkpt lat="39.364323374716186" lon="16.029954446334706"><ele>8.600000000000001</ele><time>2026-03-27T11:11:39.999Z</time></trkpt><trkpt lat="39.36422595955526" lon="16.02998220280883"><ele>8.4</ele><time>2026-03-27T11:11:41.999Z</time></trkpt><trkpt lat="39.364132683339534" lon="16.030011157630515"><ele>8.200000000000001</ele><time>2026-03-27T11:11:43.999Z</time></trkpt><trkpt lat="39.364058359990985" lon="16.03003456971335"><ele>8.0</ele><time>2026-03-27T11:11:46Z</time></trkpt><trkpt lat="39.363981113962275" lon="16.030059605973957"><ele>8.5</ele><time>2026-03-27T11:11:48Z</time></trkpt><trkpt lat="39.363904101977745" lon="16.030087199381875"><ele>9.0</ele><time>2026-03-27T11:11:50Z</time></trkpt><trkpt lat="39.363828530854654" lon="16.030113890011183"><ele>9.5</ele><time>2026-03-27T11:11:52Z</time></trkpt><trkpt lat="39.363749135996315" lon="16.03013213902946"><ele>10.0</ele><time>2026-03-27T11:11:54Z</time></trkpt><trkpt lat="39.36366401982155" lon="16.030161027617485"><ele>10.5</ele><time>2026-03-27T11:11:56Z</time></trkpt><trkpt lat="39.36357774942395" lon="16.03020915927549"><ele>11.0</ele><time>2026-03-27T11:11:58Z</time></trkpt><trkpt lat="39.36348590063313" lon="16.030268686295425"><ele>11.0</ele><time>2026-03-27T11:12:00Z</time></trkpt><trkpt lat="39.36338019905272" lon="16.03034190360349"><ele>11.0</ele><time>2026-03-27T11:12:02Z</time></trkpt><trkpt lat="39.36328255454713" lon="16.03040759571718"><ele>11.0</ele><time>2026-03-27T11:12:04Z</time></trkpt><trkpt lat="39.363211954539494" lon="16.030458978872225"><ele>11.0</ele><time>2026-03-27T11:12:06Z</time></trkpt><trkpt lat="39.363118849391455" lon="16.030516579175824"><ele>11.0</ele><time>2026-03-27T11:12:08Z</time></trkpt><trkpt lat="39.36300758785234" lon="16.03060875081257"><ele>10.833333333333332</ele><time>2026-03-27T11:12:10Z</time></trkpt><trkpt lat="39.36293120307469" lon="16.03065533876465"><ele>10.666666666666666</ele><time>2026-03-27T11:12:11Z</time></trkpt><trkpt lat="39.36285276312711" lon="16.030704237273067"><ele>10.5</ele><time>2026-03-27T11:12:12Z</time></trkpt><trkpt lat="39.36277950771538" lon="16.030756210012473"><ele>10.333333333333334</ele><time>2026-03-27T11:12:13Z</time></trkpt><trkpt lat="39.362702633499495" lon="16.03080218756587"><ele>10.166666666666668</ele><time>2026-03-27T11:12:14Z</time></trkpt><trkpt lat="39.362624503501166" lon="16.03085052440012"><ele>10.0</ele><time>2026-03-27T11:12:15Z</time></trkpt><trkpt lat="39.36253802116623" lon="16.03088860716911"><ele>10.2</ele><time>2026-03-27T11:12:16Z</time></trkpt><trkpt lat="39.36245753415006" lon="16.03095581258806"><ele>10.4</ele><time>2026-03-27T11:12:17Z</time></trkpt><trkpt lat="39.36236195464488" lon="16.0310077561941"><ele>10.600000000000001</ele><time>2026-03-27T11:12:18Z</time></trkpt><trkpt lat="39.36225325262667" lon="16.031063602047496"><ele>10.8</ele><time>2026-03-27T11:12:19Z</time></trkpt><trkpt lat="39.36214160764862" lon="16.031131201106174"><ele>11.0</ele><time>2026-03-27T11:12:20Z</time></trkpt><trkpt lat="39.3620384107259" lon="16.03121155629023"><ele>11.0</ele><time>2026-03-27T11:12:21Z</time></trkpt><trkpt lat="39.3619428995933" lon="16.03129996667707"><ele>11.0</ele><time>2026-03-27T11:12:22Z</time></trkpt><trkpt lat="39.36185580174116" lon="16.031389290621785"><ele>11.0</ele><time>2026-03-27T11:12:23Z</time></trkpt><trkpt lat="39.3617754354604" lon="16.03147271068498"><ele>11.0</ele><time>2026-03-27T11:12:24Z</time></trkpt><trkpt lat="39.361701384967326" lon="16.031547083975685"><ele>11.0</ele><time>2026-03-27T11:12:25Z</time></trkpt><trkpt lat="39.36163419527307" lon="16.031617827048187"><ele>11.0</ele><time>2026-03-27T11:12:26Z</time></trkpt><trkpt lat="39.36157757002735" lon="16.03168037682395"><ele>11.0</ele><time>2026-03-27T11:12:27Z</time></trkpt><trkpt lat="39.36152599052202" lon="16.03173213562097"><ele>11.0</ele><time>2026-03-27T11:12:28Z</time></trkpt><trkpt lat="39.36142525700074" lon="16.03182847461625"><ele>11.0</ele><time>2026-03-27T11:12:30Z</time></trkpt><trkpt lat="39.361371204993084" lon="16.031876225824963"><ele>11.0</ele><time>2026-03-27T11:12:31Z</time></trkpt><trkpt lat="39.36130477933722" lon="16.031923564264932"><ele>11.0</ele><time>2026-03-27T11:12:32Z</time></trkpt><trkpt lat="39.36122337550203" lon="16.031970387915273"><ele>11.0</ele><time>2026-03-27T11:12:33Z</time></trkpt><trkpt lat="39.361137615640075" lon="16.03202648386515"><ele>11.0</ele><time>2026-03-27T11:12:34Z</time></trkpt><trkpt lat="39.36105955884926" lon="16.032092903585298"><ele>11.0</ele><time>2026-03-27T11:12:35Z</time></trkpt><trkpt lat="39.36098779279893" lon="16.032155559225906"><ele>11.0</ele><time>2026-03-27T11:12:36Z</time></trkpt><trkpt lat="39.36092071789544" lon="16.032224352390024"><ele>11.0</ele><time>2026-03-27T11:12:37Z</time></trkpt><trkpt lat="39.360860941188406" lon="16.032298254343182"><ele>11.0</ele><time>2026-03-27T11:12:38Z</time></trkpt><trkpt lat="39.360808405406246" lon="16.032374297553975"><ele>11.0</ele><time>2026-03-27T11:12:39Z</time></trkpt><trkpt lat="39.360761329443854" lon="16.032452443006694"><ele>11.0</ele><time>2026-03-27T11:12:40Z</time></trkpt><trkpt lat="39.36071777812288" lon="16.032531783494253"><ele>11.0</ele><time>2026-03-27T11:12:41Z</time></trkpt><trkpt lat="39.36067766176776" lon="16.032606030408544"><ele>11.0</ele><time>2026-03-27T11:12:42Z</time></trkpt><trkpt lat="39.36064123619599" lon="16.032679127701964"><ele>11.0</ele><time>2026-03-27T11:12:43Z</time></trkpt><trkpt lat="39.36060873474657" lon="16.032750841609133"><ele>11.0</ele><time>2026-03-27T11:12:44Z</time></trkpt><trkpt lat="39.36057792423605" lon="16.032822643930718"><ele>11.0</ele><time>2026-03-27T11:12:45Z</time></trkpt><trkpt lat="39.360546893473916" lon="16.032895661450716"><ele>11.0</ele><time>2026-03-27T11:12:46Z</time></trkpt><trkpt lat="39.36049043974008" lon="16.033039762563078"><ele>11.0</ele><time>2026-03-27T11:12:48Z</time></trkpt><trkpt lat="39.36045885352824" lon="16.033116736141185"><ele>11.0</ele><time>2026-03-27T11:12:49Z</time></trkpt><trkpt lat="39.360424992241285" lon="16.033198916737557"><ele>11.0</ele><time>2026-03-27T11:12:50Z</time></trkpt><trkpt lat="39.36039737335718" lon="16.033274140301774"><ele>11.0</ele><time>2026-03-27T11:12:51Z</time></trkpt><trkpt lat="39.360349008078536" lon="16.033412672852798"><ele>11.0</ele><time>2026-03-27T11:12:53Z</time></trkpt><trkpt lat="39.360318874342376" lon="16.033487027843574"><ele>11.200000000000001</ele><time>2026-03-27T11:12:55Z</time></trkpt><trkpt lat="39.36027811298658" lon="16.033556437719007"><ele>11.4</ele><time>2026-03-27T11:13:02Z</time></trkpt><trkpt lat="39.36038937531345" lon="16.0336301723363"><ele>11.6</ele><time>2026-03-27T11:13:05Z</time></trkpt><trkpt lat="39.36047080536906" lon="16.033713161458866"><ele>11.8</ele><time>2026-03-27T11:13:07Z</time></trkpt><trkpt lat="39.36049253013077" lon="16.03381956248403"><ele>12.0</ele><time>2026-03-27T11:13:09Z</time></trkpt><trkpt lat="39.36043847243814" lon="16.033964114490317"><ele>12.0</ele><time>2026-03-27T11:13:11Z</time></trkpt><trkpt lat="39.36043492268416" lon="16.03405823612908"><ele>12.0</ele><time>2026-03-27T11:13:12Z</time></trkpt><trkpt lat="39.36044513605808" lon="16.034159445440764"><ele>12.0</ele><time>2026-03-27T11:13:13Z</time></trkpt><trkpt lat="39.36044642853618" lon="16.03425402073711"><ele>12.0</ele><time>2026-03-27T11:13:14Z</time></trkpt><trkpt lat="39.360465144042536" lon="16.03434819342238"><ele>12.0</ele><time>2026-03-27T11:13:15Z</time></trkpt><trkpt lat="39.36050077580053" lon="16.034438524564564"><ele>12.0</ele><time>2026-03-27T11:13:16Z</time></trkpt><trkpt lat="39.36055654168386" lon="16.034515257160464"><ele>15.166666666666668</ele><time>2026-03-27T11:13:17Z</time></trkpt><trkpt lat="39.36060966425033" lon="16.034566880711832"><ele>18.333333333333336</ele><time>2026-03-27T11:13:18Z</time></trkpt><trkpt lat="39.3606872456346" lon="16.0346209621484"><ele>21.5</ele><time>2026-03-27T11:13:20Z</time></trkpt><trkpt lat="39.360753574859864" lon="16.034750117717625"><ele>24.666666666666668</ele><time>2026-03-27T11:13:22Z</time></trkpt><trkpt lat="39.360782737264145" lon="16.034842709504932"><ele>27.833333333333336</ele><time>2026-03-27T11:13:23Z</time></trkpt><trkpt lat="39.36081879280326" lon="16.034949362529847"><ele>31.0</ele><time>2026-03-27T11:13:24Z</time></trkpt><trkpt lat="39.3608540410663" lon="16.035067939653043"><ele>31.000000000000004</ele><time>2026-03-27T11:13:25Z</time></trkpt><trkpt lat="39.36088894268272" lon="16.035176497184338"><ele>31.0</ele><time>2026-03-27T11:13:26Z</time></trkpt><trkpt lat="39.36092516319522" lon="16.035278916531315"><ele>31.0</ele><time>2026-03-27T11:13:27Z</time></trkpt><trkpt lat="39.36095221180449" lon="16.03537862670781"><ele>31.0</ele><time>2026-03-27T11:13:28Z</time></trkpt><trkpt lat="39.36096571218579" lon="16.035478135087097"><ele>31.000000000000004</ele><time>2026-03-27T11:13:29Z</time></trkpt><trkpt lat="39.360969674985924" lon="16.03558446191986"><ele>31.0</ele><time>2026-03-27T11:13:30Z</time></trkpt><trkpt lat="39.36096079733409" lon="16.035686967501142"><ele>31.000000000000004</ele><time>2026-03-27T11:13:31Z</time></trkpt><trkpt lat="39.36093286648305" lon="16.03578160696255"><ele>31.0</ele><time>2026-03-27T11:13:32Z</time></trkpt><trkpt lat="39.36088493139789" lon="16.035869990922002"><ele>31.0</ele><time>2026-03-27T11:13:33Z</time></trkpt><trkpt lat="39.36082638401759" lon="16.03594644131262"><ele>31.0</ele><time>2026-03-27T11:13:34Z</time></trkpt><trkpt lat="39.36075612641002" lon="16.035999080787132"><ele>31.000000000000004</ele><time>2026-03-27T11:13:35Z</time></trkpt><trkpt lat="39.36067515825991" lon="16.036000594541363"><ele>31.0</ele><time>2026-03-27T11:13:36Z</time></trkpt><trkpt lat="39.3605922388863" lon="16.036018596157522"><ele>30.666666666666668</ele><time>2026-03-27T11:13:37Z</time></trkpt><trkpt lat="39.36050539856649" lon="16.03603818447716"><ele>30.333333333333336</ele><time>2026-03-27T11:13:37.999Z</time></trkpt><trkpt lat="39.36041884777784" lon="16.036075364277842"><ele>30.0</ele><time>2026-03-27T11:13:38.999Z</time></trkpt><trkpt lat="39.3603318622782" lon="16.036100696498025"><ele>29.666666666666664</ele><time>2026-03-27T11:13:39.999Z</time></trkpt><trkpt lat="39.36025378216802" lon="16.036152024770512"><ele>29.333333333333332</ele><time>2026-03-27T11:13:40.999Z</time></trkpt><trkpt lat="39.3601834715679" lon="16.03621754577271"><ele>29.0</ele><time>2026-03-27T11:13:41.999Z</time></trkpt><trkpt lat="39.36011414839698" lon="16.036293442637255"><ele>29.0</ele><time>2026-03-27T11:13:42.999Z</time></trkpt><trkpt lat="39.360042326456394" lon="16.036375239555"><ele>29.0</ele><time>2026-03-27T11:13:43.999Z</time></trkpt><trkpt lat="39.359959282159785" lon="16.0364321522853"><ele>29.0</ele><time>2026-03-27T11:13:44.999Z</time></trkpt><trkpt lat="39.359886958422415" lon="16.036512036339747"><ele>29.0</ele><time>2026-03-27T11:13:45.999Z</time></trkpt><trkpt lat="39.35979182517848" lon="16.036544246941556"><ele>29.0</ele><time>2026-03-27T11:13:46.999Z</time></trkpt><trkpt lat="39.35969735788105" lon="16.03658905797831"><ele>30.6</ele><time>2026-03-27T11:13:47.999Z</time></trkpt><trkpt lat="39.35960091168033" lon="16.036631508218235"><ele>32.2</ele><time>2026-03-27T11:13:48.999Z</time></trkpt><trkpt lat="39.35950783443512" lon="16.036672475623558"><ele>33.800000000000004</ele><time>2026-03-27T11:13:49.999Z</time></trkpt><trkpt lat="39.359422517354126" lon="16.036730370544216"><ele>35.4</ele><time>2026-03-27T11:13:51Z</time></trkpt><trkpt lat="39.359337011059054" lon="16.036764018612327"><ele>37.0</ele><time>2026-03-27T11:13:52Z</time></trkpt><trkpt lat="39.359252223077384" lon="16.036795828151376"><ele>37.0</ele><time>2026-03-27T11:13:53Z</time></trkpt><trkpt lat="39.35917282894847" lon="16.036830842190348"><ele>37.0</ele><time>2026-03-27T11:13:54Z</time></trkpt><trkpt lat="39.359098370607875" lon="16.036864870825426"><ele>37.0</ele><time>2026-03-27T11:13:55Z</time></trkpt><trkpt lat="39.359021458118775" lon="16.03690095970882"><ele>37.0</ele><time>2026-03-27T11:13:56Z</time></trkpt><trkpt lat="39.358955402760124" lon="16.03695872281909"><ele>37.0</ele><time>2026-03-27T11:13:57Z</time></trkpt><trkpt lat="39.358908674947955" lon="16.037031668541694"><ele>37.0</ele><time>2026-03-27T11:13:58Z</time></trkpt><trkpt lat="39.358867711909966" lon="16.037108977051133"><ele>37.66666666666667</ele><time>2026-03-27T11:13:59Z</time></trkpt><trkpt lat="39.3588389024157" lon="16.03719851897652"><ele>38.333333333333336</ele><time>2026-03-27T11:14:00Z</time></trkpt><trkpt lat="39.35882753500069" lon="16.03731902011171"><ele>39.0</ele><time>2026-03-27T11:14:01Z</time></trkpt><trkpt lat="39.35883285594674" lon="16.037409208241055"><ele>39.666666666666664</ele><time>2026-03-27T11:14:02Z</time></trkpt><trkpt lat="39.35885587856414" lon="16.037516767811102"><ele>40.33333333333333</ele><time>2026-03-27T11:14:03Z</time></trkpt><trkpt lat="39.35889428154467" lon="16.03762293426374"><ele>41.0</ele><time>2026-03-27T11:14:04Z</time></trkpt><trkpt lat="39.35893514795937" lon="16.03772201402653"><ele>41.83333333333333</ele><time>2026-03-27T11:14:05Z</time></trkpt><trkpt lat="39.35897133170446" lon="16.03781285018544"><ele>42.666666666666664</ele><time>2026-03-27T11:14:06Z</time></trkpt><trkpt lat="39.35900900362575" lon="16.03789940330526"><ele>43.5</ele><time>2026-03-27T11:14:07Z</time></trkpt><trkpt lat="39.359042586204495" lon="16.037985874217505"><ele>44.333333333333336</ele><time>2026-03-27T11:14:08Z</time></trkpt><trkpt lat="39.35906933304422" lon="16.03806947161421"><ele>45.16666666666667</ele><time>2026-03-27T11:14:09Z</time></trkpt><trkpt lat="39.359105923851764" lon="16.03817936625526"><ele>46.0</ele><time>2026-03-27T11:14:11Z</time></trkpt><trkpt lat="39.35913354505668" lon="16.038267799572377"><ele>46.333333333333336</ele><time>2026-03-27T11:14:16Z</time></trkpt><trkpt lat="39.35916976675848" lon="16.038353366226588"><ele>46.66666666666667</ele><time>2026-03-27T11:14:18Z</time></trkpt><trkpt lat="39.35921095063742" lon="16.038469646020513"><ele>47.0</ele><time>2026-03-27T11:14:20Z</time></trkpt><trkpt lat="39.35925529431061" lon="16.038574980185786"><ele>47.333333333333336</ele><time>2026-03-27T11:14:22Z</time></trkpt><trkpt lat="39.35931505051017" lon="16.038702041384315"><ele>47.666666666666664</ele><time>2026-03-27T11:14:24Z</time></trkpt><trkpt lat="39.35935355742066" lon="16.038772231577024"><ele>48.0</ele><time>2026-03-27T11:14:25Z</time></trkpt><trkpt lat="39.35940547358009" lon="16.038836742512057"><ele>48.0</ele><time>2026-03-27T11:14:26Z</time></trkpt><trkpt lat="39.359460705108354" lon="16.038902597680163"><ele>48.0</ele><time>2026-03-27T11:14:27Z</time></trkpt><trkpt lat="39.359515891939004" lon="16.03896669776916"><ele>48.0</ele><time>2026-03-27T11:14:28Z</time></trkpt><trkpt lat="39.35957377431779" lon="16.03903302336814"><ele>48.0</ele><time>2026-03-27T11:14:29Z</time></trkpt><trkpt lat="39.3596355087049" lon="16.03909686815805"><ele>48.0</ele><time>2026-03-27T11:14:30Z</time></trkpt><trkpt lat="39.35969994633985" lon="16.03915703152809"><ele>48.0</ele><time>2026-03-27T11:14:31Z</time></trkpt><trkpt lat="39.359758583434484" lon="16.039212868435996"><ele>49.75</ele><time>2026-03-27T11:14:32Z</time></trkpt><trkpt lat="39.3598396357974" lon="16.039267606063685"><ele>51.5</ele><time>2026-03-27T11:14:34Z</time></trkpt><trkpt lat="39.35995733941656" lon="16.03910267185472"><ele>53.25</ele><time>2026-03-27T11:14:39Z</time></trkpt><trkpt lat="39.3600206887228" lon="16.03900698882202"><ele>55.0</ele><time>2026-03-27T11:14:41Z</time></trkpt><trkpt lat="39.36009631615792" lon="16.03888474524861"><ele>55.0</ele><time>2026-03-27T11:14:43Z</time></trkpt><trkpt lat="39.36016757210128" lon="16.038774791634886"><ele>55.0</ele><time>2026-03-27T11:14:45Z</time></trkpt><trkpt lat="39.36020969559852" lon="16.038695223740508"><ele>55.0</ele><time>2026-03-27T11:14:47Z</time></trkpt><trkpt lat="39.36025097570419" lon="16.038619279905095"><ele>55.0</ele><time>2026-03-27T11:14:50Z</time></trkpt><trkpt lat="39.360206565186715" lon="16.038496648268534"><ele>55.0</ele><time>2026-03-27T11:14:56Z</time></trkpt></trkseg></trk></gpx>